Time;durP1;ratioP1;P1;durP2;ratioP2;P2;SDS_P1;SDS_P2;PMS_P1;PMS_P2;Temp;Humidity;BMP_temperature;BMP_pressure;BME280_temperature;BME280_humidity;BME280_pressure;Samples;Min_cycle;Max_cycle;Signal;HPM_P1;HPM_P2
2022/06/04 00:20:13;;;;;;;4.07;2.10;;;;;;;23.98;53.81;100611.31;18497002;32;20167;-66
2022/06/04 00:30:17;;;;;;;3.17;1.87;;;;;;;23.84;54.97;100613.87;18495539;32;20107;-66
2022/06/04 00:40:28;;;;;;;4.50;2.03;;;;;;;23.61;59.60;100626.63;18495840;32;20412;-65
2022/06/04 00:50:35;;;;;;;4.78;2.10;;;;;;;22.49;68.02;100621.62;18494980;32;20352;-65
2022/06/04 01:00:42;;;;;;;5.50;2.30;;;;;;;22.97;66.75;100613.91;18501776;32;20433;-65
2022/06/04 01:10:54;;;;;;;5.30;2.25;;;;;;;22.69;68.37;100598.50;18501702;32;20110;-66
2022/06/04 01:21:02;;;;;;;6.85;2.25;;;;;;;23.02;67.29;100586.22;18501279;32;20088;-66
2022/06/04 01:31:08;;;;;;;5.68;2.33;;;;;;;22.65;69.75;100588.94;18501049;32;20104;-65
2022/06/04 01:41:14;;;;;;;4.78;2.30;;;;;;;22.75;68.12;100582.22;18498917;32;20099;-66
2022/06/04 01:51:23;;;;;;;6.80;2.60;;;;;;;23.46;66.42;100542.22;18500229;32;20080;-66
2022/06/04 02:01:30;;;;;;;5.62;2.47;;;;;;;22.41;71.42;100560.78;18501300;32;20089;-66
2022/06/04 02:11:35;;;;;;;6.00;2.62;;;;;;;22.03;73.42;100559.06;18499380;32;20085;-66
2022/06/04 02:21:38;;;;;;;9.65;3.28;;;;;;;21.96;73.69;100568.25;18500449;32;20119;-65
2022/06/04 02:31:50;;;;;;;5.90;2.95;;;;;;;23.19;68.97;100566.69;18499305;32;20108;-65
2022/06/04 02:41:59;;;;;;;7.10;2.90;;;;;;;22.74;70.58;100545.91;18498912;32;20361;-66
2022/06/04 02:52:04;;;;;;;7.05;3.05;;;;;;;21.75;75.04;100556.84;18498586;32;20107;-66
2022/06/04 03:02:09;;;;;;;6.30;3.05;;;;;;;22.29;72.22;100567.59;18497165;32;20122;-66
2022/06/04 03:12:14;;;;;;;6.85;3.53;;;;;;;22.10;72.73;100556.97;18498280;32;20489;-66
2022/06/04 03:22:17;;;;;;;7.30;3.47;;;;;;;22.00;72.67;100559.19;18496803;32;20402;-66
2022/06/04 03:32:22;;;;;;;6.80;3.42;;;;;;;22.94;68.37;100565.28;18500116;32;20372;-66
2022/06/04 03:42:25;;;;;;;7.78;3.87;;;;;;;22.51;70.29;100563.03;18560776;32;20115;-66
2022/06/04 03:52:30;;;;;;;8.35;3.28;;;;;;;23.26;67.44;100552.13;18562006;32;20096;-65
2022/06/04 04:02:33;;;;;;;6.80;3.03;;;;;;;22.21;72.80;100563.56;18533264;32;20719;-66
2022/06/04 04:12:38;;;;;;;7.22;3.45;;;;;;;22.36;71.93;100552.19;18525939;32;20381;-65
2022/06/04 04:22:42;;;;;;;7.12;2.90;;;;;;;22.06;73.38;100542.13;18525495;32;20123;-65
2022/06/04 04:32:47;;;;;;;7.05;2.90;;;;;;;22.55;71.16;100562.78;18525621;32;20080;-65
2022/06/04 04:42:51;;;;;;;8.10;3.40;;;;;;;23.03;68.73;100561.31;18498166;32;77503;-66
2022/06/04 04:52:57;;;;;;;7.95;3.08;;;;;;;21.43;76.22;100585.72;18494017;32;20118;-66
2022/06/04 05:03:05;;;;;;;4.78;2.40;;;;;;;22.30;72.40;100571.09;18493619;32;20088;-66
2022/06/04 05:13:09;;;;;;;4.00;1.83;;;;;;;23.41;66.21;100540.66;18492865;32;20096;-66
2022/06/04 05:23:13;;;;;;;4.45;1.95;;;;;;;22.12;71.47;100549.78;18492104;32;20103;-66
2022/06/04 05:33:18;;;;;;;4.45;1.70;;;;;;;22.65;69.04;100554.34;18491804;32;20105;-66
2022/06/04 05:43:21;;;;;;;5.18;1.98;;;;;;;23.01;68.21;100542.75;18497060;32;20100;-66
2022/06/04 05:53:26;;;;;;;5.10;2.00;;;;;;;22.84;68.86;100571.09;18500229;32;20103;-66
2022/06/04 06:03:29;;;;;;;4.53;1.70;;;;;;;22.65;69.14;100572.97;18500229;32;20100;-66
2022/06/04 06:13:34;;;;;;;4.35;1.80;;;;;;;21.89;72.42;100583.66;18500972;32;20376;-66
2022/06/04 06:23:38;;;;;;;4.22;1.50;;;;;;;22.68;69.42;100576.34;18497913;32;20102;-67
2022/06/04 06:33:43;;;;;;;5.18;1.80;;;;;;;22.50;70.10;100567.50;18497657;32;20101;-66
2022/06/04 06:43:49;;;;;;;5.32;2.10;;;;;;;22.64;69.44;100565.94;18495522;32;20088;-66
2022/06/04 06:53:55;;;;;;;8.07;1.87;;;;;;;22.52;69.87;100562.06;18493530;32;20138;-66
2022/06/04 07:03:59;;;;;;;4.22;1.87;;;;;;;22.81;68.33;100560.62;18491718;32;20097;-66
2022/06/04 07:14:04;;;;;;;5.22;1.87;;;;;;;22.80;69.31;100548.25;18495053;32;20114;-66
2022/06/04 07:24:08;;;;;;;8.05;1.98;;;;;;;22.44;70.68;100533.19;18494599;32;20445;-66
2022/06/04 07:34:12;;;;;;;4.75;2.15;;;;;;;21.98;73.19;100547.78;18494599;32;20155;-67
2022/06/04 07:44:17;;;;;;;5.07;2.15;;;;;;;22.22;72.63;100552.88;18491435;32;20136;-68
2022/06/04 07:54:21;;;;;;;4.75;2.40;;;;;;;21.95;73.57;100549.72;18491123;32;20120;-67
2022/06/04 08:04:25;;;;;;;6.32;2.67;;;;;;;22.14;72.88;100555.87;18494976;32;20097;-67
2022/06/04 08:14:29;;;;;;;9.13;2.62;;;;;;;21.87;73.95;100561.59;18494118;32;20107;-68
2022/06/04 08:24:33;;;;;;;5.82;2.30;;;;;;;21.74;75.32;100557.78;18492696;32;20107;-67
2022/06/04 08:34:38;;;;;;;4.82;1.80;;;;;;;22.57;70.65;100550.28;18493043;32;20136;-67
2022/06/04 08:44:44;;;;;;;7.32;2.30;;;;;;;22.70;70.55;100542.53;18494241;32;20131;-66
2022/06/04 09:05:17;;;;;;;6.43;2.95;;;;;;;22.90;70.35;100574.41;18493573;32;20404;-67
2022/06/04 09:15:29;;;;;;;4.30;2.28;;;;;;;22.41;71.92;100571.41;18495239;32;20105;-67
2022/06/04 09:25:42;;;;;;;7.05;2.58;;;;;;;22.18;73.97;100577.84;18499958;32;20089;-67
2022/06/04 09:35:47;;;;;;;8.35;3.33;;;;;;;22.92;70.31;100573.38;18500391;32;20084;-67
2022/06/04 09:45:52;;;;;;;6.60;2.15;;;;;;;22.62;72.45;100568.66;18500844;32;20380;-68
2022/06/04 09:56:00;;;;;;;6.50;2.55;;;;;;;23.85;66.31;100551.63;18500295;32;20186;-67
2022/06/04 10:06:05;;;;;;;7.43;2.50;;;;;;;23.97;66.78;100564.25;18500210;32;20084;-67
2022/06/04 10:16:18;;;;;;;7.50;3.00;;;;;;;23.36;70.05;100568.47;18499848;32;20089;-67
2022/06/04 10:26:47;;;;;;;6.72;2.90;;;;;;;22.81;74.22;100576.59;18500029;32;20125;-67
2022/06/04 10:36:58;;;;;;;7.37;3.30;;;;;;;22.70;74.46;100581.59;18499049;32;20120;-66
2022/06/04 10:47:06;;;;;;;;;;;;;;;22.64;75.00;100590.75;18498741;32;20099;-67
2022/06/04 10:57:18;;;;;;;7.65;3.40;;;;;;;22.50;74.79;100595.88;18498862;32;19999;-67
2022/06/04 11:07:34;;;;;;;8.60;3.53;;;;;;;22.72;73.63;100601.88;18498393;32;20131;-67
2022/06/04 11:17:45;;;;;;;10.23;3.97;;;;;;;23.11;73.11;100607.88;18498150;32;20107;-67
2022/06/04 11:27:51;;;;;;;9.38;4.20;;;;;;;23.95;72.05;100592.81;18497748;32;20115;-67
2022/06/04 11:38:19;;;;;;;8.07;3.42;;;;;;;24.22;71.34;100600.25;18496276;32;20111;-67
2022/06/04 11:48:45;;;;;;;7.03;2.80;;;;;;;24.28;69.34;100604.38;18497568;32;20107;-67
2022/06/04 11:59:14;;;;;;;5.93;2.45;;;;;;;24.88;67.72;100601.88;18498029;32;20093;-67
2022/06/04 12:09:23;;;;;;;4.53;1.98;;;;;;;24.65;65.90;100590.72;18495448;32;20085;-68
2022/06/04 12:29:57;;;;;;;2.67;1.08;;;;;;;26.00;63.13;100590.56;18495739;32;20088;-68
2022/06/04 12:40:16;;;;;;;3.10;1.48;;;;;;;26.65;59.84;100590.00;18493372;32;20097;-68
2022/06/04 12:50:24;;;;;;;3.72;1.33;;;;;;;26.93;59.55;100578.28;18494308;32;20149;-68
2022/06/04 13:00:36;;;;;;;1.48;1.00;;;;;;;27.15;58.79;100592.91;18494953;32;20073;-67
2022/06/04 13:10:45;;;;;;;2.65;1.35;;;;;;;27.24;57.98;100581.53;18493393;32;20372;-68
2022/06/04 13:20:53;;;;;;;2.57;1.40;;;;;;;27.10;57.74;100587.00;18494061;32;20088;-68
2022/06/04 13:30:56;;;;;;;2.12;1.10;;;;;;;28.06;54.36;100564.12;18491942;32;20581;-68
2022/06/04 13:41:04;;;;;;;1.62;1.20;;;;;;;27.14;56.94;100565.25;18491296;32;20101;-67
2022/06/04 13:51:19;;;;;;;3.30;1.20;;;;;;;27.89;54.66;100546.59;18491197;32;20093;-67
2022/06/04 14:01:27;;;;;;;3.20;1.30;;;;;;;27.64;55.98;100528.78;18493871;32;20133;-67
2022/06/04 14:11:36;;;;;;;1.87;1.00;;;;;;;27.69;55.04;100535.50;18498456;32;20170;-67
2022/06/04 14:21:55;;;;;;;3.45;1.20;;;;;;;28.91;50.72;100524.69;18498197;32;20118;-67
2022/06/04 14:32:07;;;;;;;3.28;1.37;;;;;;;29.10;49.02;100501.75;18499452;32;20092;-67
2022/06/04 14:42:29;;;;;;;1.90;1.25;;;;;;;29.53;49.16;100493.97;18499015;32;20100;-67
2022/06/04 14:52:34;;;;;;;2.83;1.50;;;;;;;29.29;50.79;100470.72;18498894;32;20111;-67
2022/06/04 15:03:08;;;;;;;2.12;1.10;;;;;;;30.02;47.28;100454.03;18498452;32;20441;-67
2022/06/04 15:13:17;;;;;;;1.73;1.23;;;;;;;28.51;51.23;100457.97;18496741;32;20097;-67
2022/06/04 15:23:35;;;;;;;2.13;1.30;;;;;;;27.99;52.03;100447.53;18498237;32;20084;-67
2022/06/04 15:33:57;;;;;;;2.62;1.62;;;;;;;28.73;52.82;100442.84;18498058;32;20085;-67
2022/06/04 15:44:09;;;;;;;1.85;1.30;;;;;;;29.34;48.64;100445.19;18497333;32;20119;-67
2022/06/04 16:04:55;;;;;;;3.10;1.10;;;;;;;29.86;46.95;100438.34;18250336;32;20128;-67
2022/06/04 16:15:08;;;;;;;1.92;1.10;;;;;;;29.71;45.94;100429.72;18293219;32;20372;-67
2022/06/04 16:25:23;;;;;;;2.75;0.95;;;;;;;29.82;46.77;100434.22;18293041;32;20129;-68
2022/06/04 16:35:26;;;;;;;1.58;1.02;;;;;;;29.55;47.48;100430.13;18355024;32;20088;-68
2022/06/04 16:45:33;;;;;;;3.45;1.30;;;;;;;29.68;46.75;100417.38;18559832;32;20115;-68
2022/06/04 16:55:56;;;;;;;2.58;1.20;;;;;;;29.67;48.27;100434.50;18559269;31;20144;-68
2022/06/04 17:06:30;;;;;;;4.62;1.90;;;;;;;29.36;49.10;100434.31;18559995;32;20492;-67
2022/06/04 17:16:41;;;;;;;2.65;1.50;;;;;;;29.43;49.94;100424.75;18558064;32;20136;-68
2022/06/04 17:26:55;;;;;;;2.85;1.37;;;;;;;28.83;51.58;100445.72;18557401;32;20102;-67
2022/06/04 17:37:10;;;;;;;2.12;1.30;;;;;;;28.20;52.44;100461.16;18560473;32;20208;-68
2022/06/04 17:47:15;;;;;;;2.75;1.40;;;;;;;28.09;52.26;100463.78;18565503;32;20084;-68
2022/06/04 17:57:19;;;;;;;2.25;1.30;;;;;;;27.67;56.49;100469.53;18565387;31;20118;-68
2022/06/04 18:07:23;;;;;;;3.05;1.30;;;;;;;27.51;57.42;100477.84;18564970;32;20341;-68
2022/06/04 18:17:27;;;;;;;4.12;1.58;;;;;;;27.25;58.07;100473.38;18564750;32;20145;-68
2022/06/04 18:27:32;;;;;;;4.93;2.03;;;;;;;26.85;59.52;100497.63;18564809;32;20096;-67
2022/06/04 18:37:35;;;;;;;3.92;1.75;;;;;;;26.52;61.39;100498.97;18562514;32;20102;-67
2022/06/04 18:58:01;;;;;;;5.50;2.25;;;;;;;25.60;63.79;100496.91;18563985;31;20152;-67
2022/06/04 19:08:18;;;;;;;5.50;2.30;;;;;;;25.01;65.18;100522.75;18562200;32;20100;-67
2022/06/04 19:18:21;;;;;;;4.25;1.87;;;;;;;24.86;65.54;100531.72;18564157;31;20089;-67
2022/06/04 19:28:26;;;;;;;5.95;2.30;;;;;;;24.50;66.61;100542.63;18561299;32;20140;-68
2022/06/04 19:38:29;;;;;;;6.03;2.22;;;;;;;24.53;66.92;100558.47;18562361;32;20096;-67
2022/06/04 19:48:34;;;;;;;5.53;2.15;;;;;;;24.62;66.50;100549.06;18560732;32;20108;-67
2022/06/04 19:58:38;;;;;;;3.53;1.87;;;;;;;24.15;67.49;100558.03;18560855;32;20140;-67
2022/06/04 20:08:43;;;;;;;4.07;2.00;;;;;;;24.07;67.59;100577.09;18561524;32;20506;-67
2022/06/04 20:18:47;;;;;;;3.85;1.80;;;;;;;23.91;67.24;100548.63;18561241;32;20103;-67
2022/06/04 20:28:52;;;;;;;5.10;2.60;;;;;;;23.81;67.73;100571.41;18559134;32;20391;-67
2022/06/04 20:38:55;;;;;;;4.80;2.37;;;;;;;23.99;66.11;100572.19;18560286;32;20424;-67
2022/06/04 20:49:09;;;;;;;8.77;2.65;;;;;;;23.81;67.10;100550.09;18559632;32;20459;-67
2022/06/04 20:59:15;;;;;;;5.50;2.65;;;;;;;23.20;69.77;100539.13;18559352;31;20103;-67
2022/06/04 21:09:19;;;;;;;8.60;2.80;;;;;;;22.97;70.26;100559.84;18560656;32;20102;-67
2022/06/04 21:19:23;;;;;;;6.40;2.55;;;;;;;23.34;68.52;100581.03;18565157;32;20092;-67
2022/06/04 21:29:27;;;;;;;6.70;2.75;;;;;;;23.52;67.95;100555.19;18565044;32;20128;-67
2022/06/04 21:39:30;;;;;;;5.70;2.90;;;;;;;23.18;69.40;100565.81;18565694;32;20088;-67
2022/06/04 21:49:37;;;;;;;7.60;2.97;;;;;;;22.95;70.25;100581.19;18565617;32;20096;-67
2022/06/04 21:59:41;;;;;;;7.55;3.33;;;;;;;23.08;70.14;100578.78;18565416;32;20111;-67
2022/06/04 22:09:46;;;;;;;7.87;3.10;;;;;;;22.68;70.70;100576.34;18565937;32;20084;-67
2022/06/04 22:19:49;;;;;;;5.00;2.47;;;;;;;22.82;70.47;100588.94;18564167;32;20119;-67
2022/06/04 22:29:53;;;;;;;6.20;2.58;;;;;;;22.83;70.65;100621.75;18563005;32;20096;-67
2022/06/04 22:39:57;;;;;;;6.22;2.75;;;;;;;22.84;70.49;100634.13;18564834;32;20106;-67
2022/06/04 22:50:02;;;;;;;8.70;3.10;;;;;;;23.02;69.34;100620.81;18562256;32;20096;-67
2022/06/04 23:00:08;;;;;;;6.43;3.05;;;;;;;22.57;71.67;100638.09;18563643;32;20092;-67
2022/06/04 23:20:45;;;;;;;5.82;2.72;;;;;;;22.06;72.61;100639.59;18563096;32;20104;-67
2022/06/04 23:30:51;;;;;;;6.97;3.07;;;;;;;22.24;70.85;100652.03;18562864;31;20107;-67
2022/06/04 23:40:54;;;;;;;5.70;2.78;;;;;;;21.96;71.87;100663.94;18562459;32;20551;-67
2022/06/04 23:50:58;;;;;;;7.05;3.25;;;;;;;21.52;72.16;100650.81;18562432;31;20362;-67
